sensor_id;sensor_type;location;lat;lon;timestamp;P1;durP1;ratioP1;P2;durP2;ratioP2
74551;SDS011;63025;55.472;38.432;2023-04-24T00:00:02;22.40;;;14.45;;
74551;SDS011;63025;55.472;38.432;2023-04-24T00:02:34;23.80;;;13.52;;
74551;SDS011;63025;55.472;38.432;2023-04-24T00:05:03;24.13;;;14.23;;
74551;SDS011;63025;55.472;38.432;2023-04-24T00:07:31;22.02;;;13.88;;
74551;SDS011;63025;55.472;38.432;2023-04-24T00:09:57;22.10;;;12.88;;
74551;SDS011;63025;55.472;38.432;2023-04-24T00:12:23;18.10;;;12.18;;
74551;SDS011;63025;55.472;38.432;2023-04-24T00:14:50;20.33;;;13.32;;
74551;SDS011;63025;55.472;38.432;2023-04-24T00:17:16;20.15;;;13.15;;
74551;SDS011;63025;55.472;38.432;2023-04-24T00:19:45;23.40;;;13.68;;
74551;SDS011;63025;55.472;38.432;2023-04-24T00:22:12;20.33;;;13.23;;
74551;SDS011;63025;55.472;38.432;2023-04-24T00:24:39;21.90;;;13.45;;
74551;SDS011;63025;55.472;38.432;2023-04-24T00:27:05;22.65;;;13.35;;
74551;SDS011;63025;55.472;38.432;2023-04-24T00:29:31;22.95;;;13.90;;
74551;SDS011;63025;55.472;38.432;2023-04-24T00:31:57;22.50;;;13.05;;
74551;SDS011;63025;55.472;38.432;2023-04-24T00:34:23;25.73;;;13.43;;
74551;SDS011;63025;55.472;38.432;2023-04-24T00:36:49;20.38;;;13.48;;
74551;SDS011;63025;55.472;38.432;2023-04-24T00:39:21;26.00;;;12.95;;
74551;SDS011;63025;55.472;38.432;2023-04-24T00:41:48;22.70;;;13.60;;
74551;SDS011;63025;55.472;38.432;2023-04-24T00:44:16;21.92;;;12.98;;
74551;SDS011;63025;55.472;38.432;2023-04-24T00:46:42;18.10;;;12.10;;
74551;SDS011;63025;55.472;38.432;2023-04-24T00:49:08;24.15;;;13.52;;
74551;SDS011;63025;55.472;38.432;2023-04-24T00:51:34;19.70;;;13.82;;
74551;SDS011;63025;55.472;38.432;2023-04-24T00:54:00;21.67;;;13.40;;
74551;SDS011;63025;55.472;38.432;2023-04-24T00:56:27;18.98;;;12.77;;
74551;SDS011;63025;55.472;38.432;2023-04-24T00:58:53;21.35;;;13.40;;
74551;SDS011;63025;55.472;38.432;2023-04-24T01:01:20;19.08;;;12.52;;
74551;SDS011;63025;55.472;38.432;2023-04-24T01:03:46;20.85;;;12.23;;
74551;SDS011;63025;55.472;38.432;2023-04-24T01:06:14;24.23;;;13.60;;
74551;SDS011;63025;55.472;38.432;2023-04-24T01:08:40;20.10;;;13.35;;
74551;SDS011;63025;55.472;38.432;2023-04-24T01:11:07;19.40;;;12.93;;
74551;SDS011;63025;55.472;38.432;2023-04-24T01:13:33;25.70;;;13.30;;
74551;SDS011;63025;55.472;38.432;2023-04-24T01:15:59;22.92;;;12.30;;
74551;SDS011;63025;55.472;38.432;2023-04-24T01:18:26;27.13;;;12.52;;
74551;SDS011;63025;55.472;38.432;2023-04-24T01:20:53;23.10;;;13.30;;
74551;SDS011;63025;55.472;38.432;2023-04-24T01:23:23;21.63;;;12.32;;
74551;SDS011;63025;55.472;38.432;2023-04-24T01:25:51;22.05;;;13.07;;
74551;SDS011;63025;55.472;38.432;2023-04-24T01:28:18;17.98;;;12.23;;
74551;SDS011;63025;55.472;38.432;2023-04-24T01:30:44;22.52;;;12.48;;
74551;SDS011;63025;55.472;38.432;2023-04-24T01:33:10;21.60;;;13.02;;
74551;SDS011;63025;55.472;38.432;2023-04-24T01:35:37;19.00;;;12.57;;
74551;SDS011;63025;55.472;38.432;2023-04-24T01:38:03;22.33;;;14.57;;
74551;SDS011;63025;55.472;38.432;2023-04-24T01:40:30;22.92;;;11.93;;
74551;SDS011;63025;55.472;38.432;2023-04-24T01:42:57;21.35;;;13.80;;
74551;SDS011;63025;55.472;38.432;2023-04-24T01:45:24;24.13;;;12.85;;
74551;SDS011;63025;55.472;38.432;2023-04-24T01:47:50;20.08;;;12.38;;
74551;SDS011;63025;55.472;38.432;2023-04-24T01:50:17;17.60;;;12.57;;
74551;SDS011;63025;55.472;38.432;2023-04-24T01:52:43;20.23;;;12.75;;
74551;SDS011;63025;55.472;38.432;2023-04-24T01:55:10;20.25;;;12.15;;
74551;SDS011;63025;55.472;38.432;2023-04-24T01:57:37;22.70;;;13.25;;
74551;SDS011;63025;55.472;38.432;2023-04-24T02:00:04;26.25;;;13.13;;
74551;SDS011;63025;55.472;38.432;2023-04-24T02:02:39;18.80;;;12.93;;
74551;SDS011;63025;55.472;38.432;2023-04-24T02:05:06;29.52;;;12.45;;
74551;SDS011;63025;55.472;38.432;2023-04-24T02:07:36;21.77;;;13.15;;
74551;SDS011;63025;55.472;38.432;2023-04-24T02:10:03;21.70;;;11.77;;
74551;SDS011;63025;55.472;38.432;2023-04-24T02:12:31;20.52;;;12.32;;
74551;SDS011;63025;55.472;38.432;2023-04-24T02:14:59;20.95;;;11.85;;
74551;SDS011;63025;55.472;38.432;2023-04-24T02:17:26;23.48;;;12.95;;
74551;SDS011;63025;55.472;38.432;2023-04-24T02:19:52;21.83;;;12.85;;
74551;SDS011;63025;55.472;38.432;2023-04-24T02:22:18;20.77;;;12.88;;
74551;SDS011;63025;55.472;38.432;2023-04-24T02:24:43;19.65;;;12.70;;
74551;SDS011;63025;55.472;38.432;2023-04-24T02:27:10;22.42;;;13.10;;
74551;SDS011;63025;55.472;38.432;2023-04-24T02:29:37;17.52;;;12.73;;
74551;SDS011;63025;55.472;38.432;2023-04-24T02:32:03;19.13;;;12.85;;
74551;SDS011;63025;55.472;38.432;2023-04-24T02:34:29;20.83;;;12.13;;
74551;SDS011;63025;55.472;38.432;2023-04-24T02:36:55;21.73;;;13.45;;
74551;SDS011;63025;55.472;38.432;2023-04-24T02:39:20;20.77;;;13.27;;
74551;SDS011;63025;55.472;38.432;2023-04-24T02:41:46;17.65;;;12.93;;
74551;SDS011;63025;55.472;38.432;2023-04-24T02:44:12;17.95;;;12.65;;
74551;SDS011;63025;55.472;38.432;2023-04-24T02:46:38;23.10;;;13.27;;
74551;SDS011;63025;55.472;38.432;2023-04-24T02:49:06;19.70;;;12.63;;
74551;SDS011;63025;55.472;38.432;2023-04-24T02:51:32;20.23;;;13.30;;
74551;SDS011;63025;55.472;38.432;2023-04-24T02:53:58;23.27;;;12.90;;
74551;SDS011;63025;55.472;38.432;2023-04-24T02:56:24;18.33;;;12.85;;
74551;SDS011;63025;55.472;38.432;2023-04-24T02:58:50;22.50;;;12.77;;
74551;SDS011;63025;55.472;38.432;2023-04-24T03:01:16;25.83;;;13.68;;
74551;SDS011;63025;55.472;38.432;2023-04-24T03:03:43;21.00;;;12.45;;
74551;SDS011;63025;55.472;38.432;2023-04-24T03:06:09;21.05;;;13.13;;
74551;SDS011;63025;55.472;38.432;2023-04-24T03:08:35;22.15;;;13.60;;
74551;SDS011;63025;55.472;38.432;2023-04-24T03:11:01;23.70;;;12.43;;
74551;SDS011;63025;55.472;38.432;2023-04-24T03:13:27;19.17;;;12.95;;
74551;SDS011;63025;55.472;38.432;2023-04-24T03:15:52;19.42;;;12.43;;
74551;SDS011;63025;55.472;38.432;2023-04-24T03:18:20;19.48;;;13.00;;
74551;SDS011;63025;55.472;38.432;2023-04-24T03:20:48;21.17;;;12.48;;
74551;SDS011;63025;55.472;38.432;2023-04-24T03:23:14;22.20;;;11.60;;
74551;SDS011;63025;55.472;38.432;2023-04-24T03:25:41;22.08;;;13.45;;
74551;SDS011;63025;55.472;38.432;2023-04-24T03:28:09;22.85;;;14.27;;
74551;SDS011;63025;55.472;38.432;2023-04-24T03:30:41;20.90;;;12.68;;
74551;SDS011;63025;55.472;38.432;2023-04-24T03:33:09;19.58;;;13.43;;
74551;SDS011;63025;55.472;38.432;2023-04-24T03:35:40;23.70;;;13.65;;
74551;SDS011;63025;55.472;38.432;2023-04-24T03:38:09;21.85;;;13.90;;
74551;SDS011;63025;55.472;38.432;2023-04-24T03:40:54;27.88;;;16.05;;
74551;SDS011;63025;55.472;38.432;2023-04-24T03:43:40;27.70;;;15.35;;
74551;SDS011;63025;55.472;38.432;2023-04-24T03:46:06;25.60;;;14.98;;
74551;SDS011;63025;55.472;38.432;2023-04-24T03:48:38;26.95;;;16.20;;
74551;SDS011;63025;55.472;38.432;2023-04-24T03:51:05;25.75;;;15.65;;
74551;SDS011;63025;55.472;38.432;2023-04-24T03:53:32;24.65;;;13.90;;
74551;SDS011;63025;55.472;38.432;2023-04-24T03:55:59;23.27;;;13.48;;
74551;SDS011;63025;55.472;38.432;2023-04-24T03:58:25;22.90;;;13.35;;
74551;SDS011;63025;55.472;38.432;2023-04-24T04:00:54;22.90;;;12.45;;
74551;SDS011;63025;55.472;38.432;2023-04-24T04:03:41;17.35;;;11.10;;
74551;SDS011;63025;55.472;38.432;2023-04-24T04:06:07;21.67;;;11.75;;
74551;SDS011;63025;55.472;38.432;2023-04-24T04:08:33;19.17;;;11.75;;
74551;SDS011;63025;55.472;38.432;2023-04-24T04:11:00;18.17;;;11.15;;
74551;SDS011;63025;55.472;38.432;2023-04-24T04:13:26;17.77;;;11.18;;
74551;SDS011;63025;55.472;38.432;2023-04-24T04:15:52;16.95;;;10.52;;
74551;SDS011;63025;55.472;38.432;2023-04-24T04:18:18;16.98;;;11.35;;
74551;SDS011;63025;55.472;38.432;2023-04-24T04:20:44;16.05;;;10.40;;
74551;SDS011;63025;55.472;38.432;2023-04-24T04:23:12;16.52;;;10.45;;
74551;SDS011;63025;55.472;38.432;2023-04-24T04:25:54;16.70;;;10.30;;
74551;SDS011;63025;55.472;38.432;2023-04-24T04:28:24;15.75;;;10.32;;
74551;SDS011;63025;55.472;38.432;2023-04-24T04:30:50;15.93;;;10.48;;
74551;SDS011;63025;55.472;38.432;2023-04-24T04:33:20;16.83;;;11.13;;
74551;SDS011;63025;55.472;38.432;2023-04-24T04:35:47;19.10;;;11.35;;
74551;SDS011;63025;55.472;38.432;2023-04-24T04:38:20;19.80;;;11.52;;
74551;SDS011;63025;55.472;38.432;2023-04-24T04:41:15;16.92;;;10.60;;
74551;SDS011;63025;55.472;38.432;2023-04-24T04:43:43;19.02;;;10.20;;
74551;SDS011;63025;55.472;38.432;2023-04-24T04:46:10;21.48;;;10.98;;
74551;SDS011;63025;55.472;38.432;2023-04-24T04:49:08;18.15;;;10.63;;
74551;SDS011;63025;55.472;38.432;2023-04-24T04:51:37;19.98;;;11.10;;
74551;SDS011;63025;55.472;38.432;2023-04-24T04:54:03;19.90;;;10.88;;
74551;SDS011;63025;55.472;38.432;2023-04-24T04:56:29;21.25;;;10.40;;
74551;SDS011;63025;55.472;38.432;2023-04-24T04:58:58;19.42;;;10.07;;
74551;SDS011;63025;55.472;38.432;2023-04-24T05:01:25;18.05;;;9.90;;
74551;SDS011;63025;55.472;38.432;2023-04-24T05:03:54;13.60;;;9.02;;
74551;SDS011;63025;55.472;38.432;2023-04-24T05:06:20;13.23;;;9.25;;
74551;SDS011;63025;55.472;38.432;2023-04-24T05:08:46;16.27;;;9.10;;
74551;SDS011;63025;55.472;38.432;2023-04-24T05:11:24;14.07;;;9.80;;
74551;SDS011;63025;55.472;38.432;2023-04-24T05:13:51;14.55;;;8.93;;
74551;SDS011;63025;55.472;38.432;2023-04-24T05:16:22;14.70;;;8.23;;
74551;SDS011;63025;55.472;38.432;2023-04-24T05:18:49;16.95;;;8.25;;
74551;SDS011;63025;55.472;38.432;2023-04-24T05:21:19;17.20;;;8.18;;
74551;SDS011;63025;55.472;38.432;2023-04-24T05:23:49;13.90;;;8.60;;
74551;SDS011;63025;55.472;38.432;2023-04-24T05:26:22;14.48;;;8.52;;
74551;SDS011;63025;55.472;38.432;2023-04-24T05:28:49;13.25;;;8.23;;
74551;SDS011;63025;55.472;38.432;2023-04-24T05:31:16;14.75;;;8.50;;
74551;SDS011;63025;55.472;38.432;2023-04-24T05:33:43;13.90;;;8.40;;
74551;SDS011;63025;55.472;38.432;2023-04-24T05:36:09;13.40;;;8.27;;
74551;SDS011;63025;55.472;38.432;2023-04-24T05:38:35;11.90;;;7.75;;
74551;SDS011;63025;55.472;38.432;2023-04-24T05:41:01;10.05;;;6.93;;
74551;SDS011;63025;55.472;38.432;2023-04-24T05:43:27;13.30;;;7.80;;
74551;SDS011;63025;55.472;38.432;2023-04-24T05:45:52;14.07;;;7.22;;
74551;SDS011;63025;55.472;38.432;2023-04-24T05:48:18;10.80;;;7.03;;
74551;SDS011;63025;55.472;38.432;2023-04-24T05:50:44;10.50;;;7.63;;
74551;SDS011;63025;55.472;38.432;2023-04-24T05:53:11;10.98;;;6.93;;
74551;SDS011;63025;55.472;38.432;2023-04-24T05:55:37;13.20;;;7.22;;
74551;SDS011;63025;55.472;38.432;2023-04-24T05:58:03;11.85;;;6.95;;
74551;SDS011;63025;55.472;38.432;2023-04-24T06:00:29;11.38;;;6.85;;
74551;SDS011;63025;55.472;38.432;2023-04-24T06:03:02;14.93;;;6.60;;
74551;SDS011;63025;55.472;38.432;2023-04-24T06:05:29;7.90;;;5.78;;
74551;SDS011;63025;55.472;38.432;2023-04-24T06:07:56;10.43;;;6.18;;
74551;SDS011;63025;55.472;38.432;2023-04-24T06:10:25;10.27;;;5.47;;
74551;SDS011;63025;55.472;38.432;2023-04-24T06:12:51;8.25;;;5.68;;
74551;SDS011;63025;55.472;38.432;2023-04-24T06:15:17;8.55;;;4.60;;
74551;SDS011;63025;55.472;38.432;2023-04-24T06:17:52;7.95;;;4.60;;
74551;SDS011;63025;55.472;38.432;2023-04-24T06:20:20;7.10;;;4.07;;
74551;SDS011;63025;55.472;38.432;2023-04-24T06:22:45;9.48;;;3.70;;
74551;SDS011;63025;55.472;38.432;2023-04-24T06:25:11;7.47;;;3.90;;
74551;SDS011;63025;55.472;38.432;2023-04-24T06:27:37;7.15;;;3.83;;
74551;SDS011;63025;55.472;38.432;2023-04-24T06:30:03;7.00;;;4.07;;
74551;SDS011;63025;55.472;38.432;2023-04-24T06:32:30;7.10;;;3.97;;
74551;SDS011;63025;55.472;38.432;2023-04-24T06:34:59;7.85;;;3.90;;
74551;SDS011;63025;55.472;38.432;2023-04-24T06:37:25;5.93;;;3.58;;
74551;SDS011;63025;55.472;38.432;2023-04-24T06:39:51;7.03;;;3.80;;
74551;SDS011;63025;55.472;38.432;2023-04-24T06:42:17;8.98;;;3.65;;
74551;SDS011;63025;55.472;38.432;2023-04-24T06:44:43;6.32;;;3.63;;
74551;SDS011;63025;55.472;38.432;2023-04-24T06:47:10;6.07;;;3.28;;
74551;SDS011;63025;55.472;38.432;2023-04-24T06:49:38;5.20;;;3.35;;
74551;SDS011;63025;55.472;38.432;2023-04-24T06:52:04;7.55;;;3.42;;
74551;SDS011;63025;55.472;38.432;2023-04-24T06:54:30;7.18;;;3.35;;
74551;SDS011;63025;55.472;38.432;2023-04-24T06:56:56;5.65;;;3.05;;
74551;SDS011;63025;55.472;38.432;2023-04-24T06:59:26;5.60;;;3.40;;
74551;SDS011;63025;55.472;38.432;2023-04-24T07:01:53;6.15;;;3.63;;
74551;SDS011;63025;55.472;38.432;2023-04-24T07:04:19;6.22;;;3.30;;
74551;SDS011;63025;55.472;38.432;2023-04-24T07:06:45;7.68;;;3.30;;
74551;SDS011;63025;55.472;38.432;2023-04-24T07:09:14;5.93;;;3.22;;
74551;SDS011;63025;55.472;38.432;2023-04-24T07:11:44;10.18;;;3.60;;
74551;SDS011;63025;55.472;38.432;2023-04-24T07:14:11;5.43;;;3.67;;
74551;SDS011;63025;55.472;38.432;2023-04-24T07:16:38;5.43;;;3.38;;
74551;SDS011;63025;55.472;38.432;2023-04-24T07:19:04;6.13;;;3.70;;
74551;SDS011;63025;55.472;38.432;2023-04-24T07:21:30;6.38;;;3.30;;
74551;SDS011;63025;55.472;38.432;2023-04-24T07:23:57;5.55;;;3.53;;
74551;SDS011;63025;55.472;38.432;2023-04-24T07:26:24;5.93;;;3.47;;
74551;SDS011;63025;55.472;38.432;2023-04-24T07:28:51;5.82;;;3.20;;
74551;SDS011;63025;55.472;38.432;2023-04-24T07:31:16;9.43;;;3.42;;
74551;SDS011;63025;55.472;38.432;2023-04-24T07:33:42;5.05;;;3.08;;
74551;SDS011;63025;55.472;38.432;2023-04-24T07:36:08;5.93;;;3.10;;
74551;SDS011;63025;55.472;38.432;2023-04-24T07:38:34;5.07;;;3.22;;
74551;SDS011;63025;55.472;38.432;2023-04-24T07:40:59;5.38;;;2.95;;
74551;SDS011;63025;55.472;38.432;2023-04-24T07:43:25;5.05;;;2.67;;
74551;SDS011;63025;55.472;38.432;2023-04-24T07:45:51;9.48;;;3.55;;
74551;SDS011;63025;55.472;38.432;2023-04-24T07:48:17;5.53;;;3.30;;
74551;SDS011;63025;55.472;38.432;2023-04-24T07:50:43;5.95;;;3.00;;
74551;SDS011;63025;55.472;38.432;2023-04-24T07:53:10;4.50;;;2.80;;
74551;SDS011;63025;55.472;38.432;2023-04-24T07:55:36;4.30;;;2.58;;
74551;SDS011;63025;55.472;38.432;2023-04-24T07:58:02;6.47;;;3.17;;
74551;SDS011;63025;55.472;38.432;2023-04-24T08:00:28;10.20;;;2.80;;
74551;SDS011;63025;55.472;38.432;2023-04-24T08:02:54;5.10;;;2.45;;
74551;SDS011;63025;55.472;38.432;2023-04-24T08:05:19;5.78;;;2.70;;
74551;SDS011;63025;55.472;38.432;2023-04-24T08:08:00;5.43;;;2.75;;
74551;SDS011;63025;55.472;38.432;2023-04-24T08:10:27;6.75;;;2.92;;
74551;SDS011;63025;55.472;38.432;2023-04-24T08:12:52;5.55;;;2.75;;
74551;SDS011;63025;55.472;38.432;2023-04-24T08:15:18;5.63;;;2.88;;
74551;SDS011;63025;55.472;38.432;2023-04-24T08:17:44;4.47;;;2.63;;
74551;SDS011;63025;55.472;38.432;2023-04-24T08:20:10;5.88;;;2.90;;
74551;SDS011;63025;55.472;38.432;2023-04-24T08:22:40;4.35;;;2.88;;
74551;SDS011;63025;55.472;38.432;2023-04-24T08:25:06;8.73;;;2.72;;
74551;SDS011;63025;55.472;38.432;2023-04-24T08:27:33;6.13;;;2.85;;
74551;SDS011;63025;55.472;38.432;2023-04-24T08:29:58;6.57;;;2.55;;
74551;SDS011;63025;55.472;38.432;2023-04-24T08:32:25;4.78;;;2.75;;
74551;SDS011;63025;55.472;38.432;2023-04-24T08:34:54;5.70;;;2.95;;
74551;SDS011;63025;55.472;38.432;2023-04-24T08:37:22;7.90;;;2.85;;
74551;SDS011;63025;55.472;38.432;2023-04-24T08:39:49;8.70;;;2.95;;
74551;SDS011;63025;55.472;38.432;2023-04-24T08:42:15;7.65;;;2.75;;
74551;SDS011;63025;55.472;38.432;2023-04-24T08:44:42;5.30;;;2.97;;
74551;SDS011;63025;55.472;38.432;2023-04-24T08:47:09;4.82;;;3.05;;
74551;SDS011;63025;55.472;38.432;2023-04-24T08:49:36;4.95;;;2.95;;
74551;SDS011;63025;55.472;38.432;2023-04-24T08:52:03;5.47;;;3.00;;
74551;SDS011;63025;55.472;38.432;2023-04-24T08:54:30;4.40;;;2.90;;
74551;SDS011;63025;55.472;38.432;2023-04-24T08:57:00;7.28;;;3.08;;
74551;SDS011;63025;55.472;38.432;2023-04-24T08:59:31;5.57;;;3.00;;
74551;SDS011;63025;55.472;38.432;2023-04-24T09:01:59;6.63;;;3.03;;
74551;SDS011;63025;55.472;38.432;2023-04-24T09:04:25;9.63;;;3.38;;
74551;SDS011;63025;55.472;38.432;2023-04-24T09:06:56;4.57;;;3.17;;
74551;SDS011;63025;55.472;38.432;2023-04-24T09:09:24;5.55;;;2.90;;
74551;SDS011;63025;55.472;38.432;2023-04-24T09:11:51;4.80;;;2.67;;
74551;SDS011;63025;55.472;38.432;2023-04-24T09:14:19;5.80;;;3.25;;
74551;SDS011;63025;55.472;38.432;2023-04-24T09:16:46;5.07;;;3.17;;
74551;SDS011;63025;55.472;38.432;2023-04-24T09:19:13;3.75;;;2.90;;
74551;SDS011;63025;55.472;38.432;2023-04-24T09:21:38;5.70;;;3.10;;
74551;SDS011;63025;55.472;38.432;2023-04-24T09:24:06;6.43;;;2.95;;
74551;SDS011;63025;55.472;38.432;2023-04-24T09:26:39;5.40;;;2.90;;
74551;SDS011;63025;55.472;38.432;2023-04-24T09:29:05;4.47;;;2.90;;
74551;SDS011;63025;55.472;38.432;2023-04-24T09:31:31;7.15;;;2.95;;
74551;SDS011;63025;55.472;38.432;2023-04-24T09:36:26;4.72;;;3.20;;
74551;SDS011;63025;55.472;38.432;2023-04-24T09:38:55;6.78;;;3.85;;
74551;SDS011;63025;55.472;38.432;2023-04-24T09:41:24;6.97;;;3.90;;
74551;SDS011;63025;55.472;38.432;2023-04-24T09:43:50;5.38;;;3.60;;
74551;SDS011;63025;55.472;38.432;2023-04-24T09:46:20;7.22;;;3.15;;
74551;SDS011;63025;55.472;38.432;2023-04-24T09:48:47;5.10;;;3.08;;
74551;SDS011;63025;55.472;38.432;2023-04-24T09:51:13;4.45;;;2.90;;
74551;SDS011;63025;55.472;38.432;2023-04-24T09:53:44;5.63;;;3.30;;
74551;SDS011;63025;55.472;38.432;2023-04-24T09:56:14;4.60;;;3.33;;
74551;SDS011;63025;55.472;38.432;2023-04-24T09:58:39;5.35;;;3.55;;
74551;SDS011;63025;55.472;38.432;2023-04-24T10:01:05;5.38;;;3.20;;
74551;SDS011;63025;55.472;38.432;2023-04-24T10:03:31;6.25;;;3.70;;
74551;SDS011;63025;55.472;38.432;2023-04-24T10:05:59;5.10;;;2.85;;
74551;SDS011;63025;55.472;38.432;2023-04-24T10:08:26;4.65;;;3.20;;
74551;SDS011;63025;55.472;38.432;2023-04-24T10:10:52;7.72;;;4.13;;
74551;SDS011;63025;55.472;38.432;2023-04-24T10:13:18;6.20;;;2.92;;
74551;SDS011;63025;55.472;38.432;2023-04-24T10:15:44;4.70;;;2.90;;
74551;SDS011;63025;55.472;38.432;2023-04-24T10:18:12;5.68;;;2.70;;
74551;SDS011;63025;55.472;38.432;2023-04-24T10:20:38;4.68;;;3.10;;
74551;SDS011;63025;55.472;38.432;2023-04-24T10:23:05;4.47;;;2.83;;
74551;SDS011;63025;55.472;38.432;2023-04-24T10:25:32;6.70;;;3.10;;
74551;SDS011;63025;55.472;38.432;2023-04-24T10:28:00;5.13;;;3.00;;
74551;SDS011;63025;55.472;38.432;2023-04-24T10:30:31;4.28;;;2.60;;
74551;SDS011;63025;55.472;38.432;2023-04-24T10:33:02;5.32;;;2.63;;
74551;SDS011;63025;55.472;38.432;2023-04-24T10:35:39;3.53;;;2.65;;
74551;SDS011;63025;55.472;38.432;2023-04-24T10:38:11;4.35;;;2.67;;
74551;SDS011;63025;55.472;38.432;2023-04-24T10:40:39;3.95;;;2.53;;
74551;SDS011;63025;55.472;38.432;2023-04-24T10:43:05;4.97;;;2.92;;
74551;SDS011;63025;55.472;38.432;2023-04-24T10:45:34;6.25;;;2.80;;
74551;SDS011;63025;55.472;38.432;2023-04-24T10:53:20;5.10;;;2.88;;
74551;SDS011;63025;55.472;38.432;2023-04-24T10:55:49;5.43;;;2.92;;
74551;SDS011;63025;55.472;38.432;2023-04-24T10:58:18;12.25;;;5.57;;
74551;SDS011;63025;55.472;38.432;2023-04-24T11:00:58;9.23;;;5.50;;
74551;SDS011;63025;55.472;38.432;2023-04-24T11:03:27;7.75;;;3.00;;
74551;SDS011;63025;55.472;38.432;2023-04-24T11:08:42;6.75;;;3.10;;
74551;SDS011;63025;55.472;38.432;2023-04-24T11:16:21;6.38;;;3.47;;
74551;SDS011;63025;55.472;38.432;2023-04-24T11:24:40;7.03;;;3.35;;
74551;SDS011;63025;55.472;38.432;2023-04-24T11:29:46;4.75;;;2.95;;
74551;SDS011;63025;55.472;38.432;2023-04-24T11:37:26;7.22;;;3.40;;
74551;SDS011;63025;55.472;38.432;2023-04-24T11:39:58;6.60;;;3.80;;
74551;SDS011;63025;55.472;38.432;2023-04-24T11:42:24;10.00;;;3.50;;
74551;SDS011;63025;55.472;38.432;2023-04-24T11:44:54;8.98;;;3.33;;
74551;SDS011;63025;55.472;38.432;2023-04-24T11:47:32;6.32;;;3.33;;
74551;SDS011;63025;55.472;38.432;2023-04-24T11:49:59;5.40;;;3.28;;
74551;SDS011;63025;55.472;38.432;2023-04-24T11:52:26;11.63;;;3.70;;
74551;SDS011;63025;55.472;38.432;2023-04-24T11:54:52;7.35;;;3.42;;
74551;SDS011;63025;55.472;38.432;2023-04-24T11:57:19;6.32;;;3.05;;
74551;SDS011;63025;55.472;38.432;2023-04-24T11:59:45;5.90;;;2.80;;
74551;SDS011;63025;55.472;38.432;2023-04-24T12:02:24;5.15;;;3.40;;
74551;SDS011;63025;55.472;38.432;2023-04-24T12:04:52;7.45;;;3.08;;
74551;SDS011;63025;55.472;38.432;2023-04-24T12:07:19;3.80;;;2.58;;
74551;SDS011;63025;55.472;38.432;2023-04-24T12:09:50;9.55;;;3.15;;
74551;SDS011;63025;55.472;38.432;2023-04-24T12:12:20;5.97;;;3.38;;
74551;SDS011;63025;55.472;38.432;2023-04-24T12:14:55;6.68;;;3.25;;
74551;SDS011;63025;55.472;38.432;2023-04-24T12:17:26;4.53;;;2.90;;
74551;SDS011;63025;55.472;38.432;2023-04-24T12:22:50;6.65;;;2.85;;
74551;SDS011;63025;55.472;38.432;2023-04-24T12:25:20;5.43;;;2.95;;
74551;SDS011;63025;55.472;38.432;2023-04-24T12:28:33;6.63;;;3.20;;
74551;SDS011;63025;55.472;38.432;2023-04-24T12:30:44;6.80;;;3.13;;
74551;SDS011;63025;55.472;38.432;2023-04-24T12:33:17;5.25;;;3.30;;
74551;SDS011;63025;55.472;38.432;2023-04-24T12:35:44;7.13;;;3.10;;
74551;SDS011;63025;55.472;38.432;2023-04-24T12:38:13;8.70;;;3.10;;
74551;SDS011;63025;55.472;38.432;2023-04-24T12:40:41;8.07;;;3.35;;
74551;SDS011;63025;55.472;38.432;2023-04-24T12:43:14;5.38;;;3.33;;
74551;SDS011;63025;55.472;38.432;2023-04-24T12:45:41;4.93;;;2.75;;
74551;SDS011;63025;55.472;38.432;2023-04-24T12:48:07;6.72;;;3.03;;
74551;SDS011;63025;55.472;38.432;2023-04-24T12:50:33;6.63;;;2.67;;
74551;SDS011;63025;55.472;38.432;2023-04-24T12:52:59;5.57;;;3.05;;
74551;SDS011;63025;55.472;38.432;2023-04-24T12:55:25;5.63;;;2.97;;
74551;SDS011;63025;55.472;38.432;2023-04-24T12:57:51;6.70;;;3.40;;
74551;SDS011;63025;55.472;38.432;2023-04-24T13:00:18;5.85;;;3.35;;
74551;SDS011;63025;55.472;38.432;2023-04-24T13:02:44;7.63;;;3.30;;
74551;SDS011;63025;55.472;38.432;2023-04-24T13:05:10;7.07;;;3.30;;
74551;SDS011;63025;55.472;38.432;2023-04-24T13:07:36;6.03;;;3.28;;
74551;SDS011;63025;55.472;38.432;2023-04-24T13:10:02;8.93;;;3.65;;
74551;SDS011;63025;55.472;38.432;2023-04-24T13:12:30;14.05;;;3.85;;
74551;SDS011;63025;55.472;38.432;2023-04-24T13:14:55;7.03;;;3.38;;
74551;SDS011;63025;55.472;38.432;2023-04-24T13:17:21;7.07;;;3.47;;
74551;SDS011;63025;55.472;38.432;2023-04-24T13:19:49;13.13;;;3.40;;
74551;SDS011;63025;55.472;38.432;2023-04-24T13:22:15;6.28;;;2.95;;
74551;SDS011;63025;55.472;38.432;2023-04-24T13:24:42;7.53;;;3.22;;
74551;SDS011;63025;55.472;38.432;2023-04-24T13:27:08;6.03;;;3.08;;
74551;SDS011;63025;55.472;38.432;2023-04-24T13:29:35;4.65;;;2.80;;
74551;SDS011;63025;55.472;38.432;2023-04-24T13:32:02;6.65;;;3.30;;
74551;SDS011;63025;55.472;38.432;2023-04-24T13:34:28;4.57;;;2.83;;
74551;SDS011;63025;55.472;38.432;2023-04-24T13:36:54;6.10;;;2.83;;
74551;SDS011;63025;55.472;38.432;2023-04-24T13:39:22;7.88;;;3.20;;
74551;SDS011;63025;55.472;38.432;2023-04-24T13:41:49;6.85;;;3.40;;
74551;SDS011;63025;55.472;38.432;2023-04-24T13:44:15;9.70;;;3.50;;
74551;SDS011;63025;55.472;38.432;2023-04-24T13:46:43;7.78;;;3.80;;
74551;SDS011;63025;55.472;38.432;2023-04-24T13:49:11;11.85;;;4.35;;
74551;SDS011;63025;55.472;38.432;2023-04-24T13:51:38;11.15;;;3.85;;
74551;SDS011;63025;55.472;38.432;2023-04-24T13:54:05;12.60;;;3.60;;
74551;SDS011;63025;55.472;38.432;2023-04-24T13:56:32;9.55;;;3.55;;
74551;SDS011;63025;55.472;38.432;2023-04-24T13:58:58;11.70;;;3.70;;
74551;SDS011;63025;55.472;38.432;2023-04-24T14:01:24;9.85;;;4.30;;
74551;SDS011;63025;55.472;38.432;2023-04-24T14:03:51;6.90;;;3.55;;
74551;SDS011;63025;55.472;38.432;2023-04-24T14:06:18;9.73;;;3.70;;
74551;SDS011;63025;55.472;38.432;2023-04-24T14:08:45;9.30;;;3.70;;
74551;SDS011;63025;55.472;38.432;2023-04-24T14:11:11;8.88;;;3.90;;
74551;SDS011;63025;55.472;38.432;2023-04-24T14:13:38;7.75;;;3.60;;
74551;SDS011;63025;55.472;38.432;2023-04-24T14:16:05;7.05;;;3.60;;
74551;SDS011;63025;55.472;38.432;2023-04-24T14:18:31;13.98;;;4.15;;
74551;SDS011;63025;55.472;38.432;2023-04-24T14:20:57;10.73;;;3.92;;
74551;SDS011;63025;55.472;38.432;2023-04-24T14:23:23;9.25;;;4.07;;
74551;SDS011;63025;55.472;38.432;2023-04-24T14:25:49;8.70;;;4.00;;
74551;SDS011;63025;55.472;38.432;2023-04-24T14:28:18;12.05;;;4.28;;
74551;SDS011;63025;55.472;38.432;2023-04-24T14:30:47;22.38;;;5.30;;
74551;SDS011;63025;55.472;38.432;2023-04-24T14:33:13;9.27;;;4.90;;
74551;SDS011;63025;55.472;38.432;2023-04-24T14:35:40;9.15;;;4.32;;
74551;SDS011;63025;55.472;38.432;2023-04-24T14:38:10;8.32;;;4.40;;
74551;SDS011;63025;55.472;38.432;2023-04-24T14:40:36;10.95;;;3.70;;
74551;SDS011;63025;55.472;38.432;2023-04-24T14:43:03;8.13;;;4.22;;
74551;SDS011;63025;55.472;38.432;2023-04-24T14:45:29;9.70;;;3.70;;
74551;SDS011;63025;55.472;38.432;2023-04-24T14:47:55;7.60;;;4.05;;
74551;SDS011;63025;55.472;38.432;2023-04-24T14:50:21;11.57;;;4.25;;
74551;SDS011;63025;55.472;38.432;2023-04-24T14:52:47;8.82;;;3.72;;
74551;SDS011;63025;55.472;38.432;2023-04-24T14:55:13;11.90;;;5.13;;
74551;SDS011;63025;55.472;38.432;2023-04-24T14:57:40;10.38;;;4.53;;